createdAt,value
2022-10-19T00:02:22.707Z,94746.84
2022-10-19T00:04:49.395Z,94744.69
2022-10-19T00:07:16.014Z,94744.41
2022-10-19T00:09:45.449Z,94748.09
2022-10-19T00:12:13.033Z,94738.53
2022-10-19T00:14:39.758Z,94738.59
2022-10-19T00:17:06.394Z,94746.75
2022-10-19T00:19:33.135Z,94737.81
2022-10-19T00:22:00.297Z,94729.56
2022-10-19T00:24:26.894Z,94732.03
2022-10-19T00:26:53.506Z,94724.56
2022-10-19T00:29:20.147Z,94722.59
2022-10-19T00:31:50.050Z,94710.53
2022-10-19T00:34:17.515Z,94704.22
2022-10-19T00:36:44.118Z,94703.63
2022-10-19T00:39:13.422Z,94699.09
2022-10-19T00:41:41.048Z,94693.63
2022-10-19T00:44:13.611Z,94693.63
2022-10-19T00:46:45.777Z,94691.94
2022-10-19T00:49:24.855Z,94686.03
2022-10-19T00:51:55.596Z,94687.09
2022-10-19T00:54:23.618Z,94683.78
2022-10-19T00:56:53.456Z,94680.28
2022-10-19T00:59:22.187Z,94677.34
2022-10-19T01:01:49.913Z,94685.69
2022-10-19T01:04:16.884Z,94673.22
2022-10-19T01:06:44.048Z,94673.72
2022-10-19T01:09:10.703Z,94668.81
2022-10-19T01:11:57.026Z,94663.69
2022-10-19T01:14:42.957Z,94658.38
2022-10-19T01:17:15.351Z,94658.44
2022-10-19T01:20:13.125Z,94650.13
2022-10-19T01:22:58.182Z,94642.25
2022-10-19T01:25:36.284Z,94644.31
2022-10-19T01:28:35.234Z,94642.53
2022-10-19T01:31:13.875Z,94638.84
2022-10-19T01:33:48.416Z,94633.22
2022-10-19T01:36:39.697Z,94642.34
2022-10-19T01:39:27.416Z,94639.03
2022-10-19T01:42:06.052Z,94637.34
2022-10-19T01:44:43.034Z,94637.22
2022-10-19T01:47:22.717Z,94627.84
2022-10-19T01:50:11.142Z,94631.56
2022-10-19T01:52:40.966Z,94627.25
2022-10-19T01:55:11.675Z,94622.91
2022-10-19T01:57:47.869Z,94623.25
2022-10-19T02:00:17.251Z,94624.34
2022-10-19T02:02:48.618Z,94622.59
2022-10-19T02:05:19.302Z,94626.03
2022-10-19T02:07:50.963Z,94619.38
2022-10-19T02:10:19.299Z,94606.03
2022-10-19T02:12:46.955Z,94608.06
2022-10-19T02:15:17.740Z,94614.78
2022-10-19T02:17:49.236Z,94609.31
2022-10-19T02:20:17.110Z,94605.91
2022-10-19T02:22:43.889Z,94621.06
2022-10-19T02:25:12.199Z,94610.72
2022-10-19T02:27:42.157Z,94609.44
2022-10-19T02:30:14.419Z,94618.69
2022-10-19T02:32:41.787Z,94614.34
2022-10-19T02:35:08.957Z,94620.50
2022-10-19T02:40:04.817Z,94614.03
2022-10-19T02:42:39.283Z,94609.66
2022-10-19T02:45:12.313Z,94614.88
2022-10-19T02:47:48.574Z,94615.63
2022-10-19T02:50:15.712Z,94617.94
2022-10-19T02:52:42.563Z,94612.66
2022-10-19T02:55:09.972Z,94614.56
2022-10-19T02:57:37.036Z,94608.53
2022-10-19T03:00:06.444Z,94609.97
2022-10-19T03:02:33.115Z,94601.47
2022-10-19T03:04:59.778Z,94607.13
2022-10-19T03:07:26.448Z,94608.28
2022-10-19T03:09:53.067Z,94606.69
2022-10-19T03:12:19.742Z,94605.50
2022-10-19T03:14:46.350Z,94604.94
2022-10-19T03:17:12.985Z,94606.34
2022-10-19T03:19:39.632Z,94605.44
2022-10-19T03:22:06.276Z,94610.44
2022-10-19T03:24:33.099Z,94608.94
2022-10-19T03:26:59.852Z,94607.34
2022-10-19T03:29:26.430Z,94603.53
2022-10-19T03:31:52.994Z,94600.72
2022-10-19T03:34:19.600Z,94601.56
2022-10-19T03:36:46.329Z,94598.13
2022-10-19T03:39:14.838Z,94590.69
2022-10-19T03:41:42.407Z,94588.34
2022-10-19T03:44:10.518Z,94594.09
2022-10-19T03:46:38.030Z,94595.00
2022-10-19T03:49:05.263Z,94592.63
2022-10-19T03:51:33.122Z,94583.09
2022-10-19T03:54:04.599Z,94579.59
2022-10-19T03:56:32.301Z,94590.19
2022-10-19T03:59:00.822Z,94583.69
2022-10-19T04:01:33.220Z,94592.16
2022-10-19T04:04:03.288Z,94588.44
2022-10-19T04:06:40.756Z,94589.50
2022-10-19T04:09:09.078Z,94590.97
2022-10-19T04:11:36.047Z,94588.50
2022-10-19T04:14:02.792Z,94584.63
2022-10-19T04:16:30.768Z,94580.63
2022-10-19T04:18:58.369Z,94578.63
2022-10-19T04:21:29.308Z,94575.13
2022-10-19T04:24:05.094Z,94574.66
2022-10-19T04:26:32.269Z,94565.94
2022-10-19T04:29:00.103Z,94566.19
2022-10-19T04:31:28.416Z,94564.19
2022-10-19T04:33:56.013Z,94564.84
2022-10-19T04:36:23.480Z,94561.00
2022-10-19T04:38:50.109Z,94563.28
2022-10-19T04:41:19.838Z,94563.00
2022-10-19T04:43:47.609Z,94558.31
2022-10-19T04:46:17.822Z,94558.66
2022-10-19T04:48:45.995Z,94561.47
2022-10-19T04:51:13.088Z,94566.91
2022-10-19T04:53:41.136Z,94564.47
2022-10-19T04:56:11.397Z,94566.97
2022-10-19T04:58:37.951Z,94578.69
2022-10-19T05:01:09.670Z,94574.31
2022-10-19T05:03:36.484Z,94575.03
2022-10-19T05:06:03.699Z,94575.88
2022-10-19T05:08:30.601Z,94567.16
2022-10-19T05:11:05.485Z,94571.00
2022-10-19T05:13:33.077Z,94568.91
2022-10-19T05:16:01.401Z,94564.84
2022-10-19T05:18:28.824Z,94558.56
2022-10-19T05:21:07.011Z,94559.75
2022-10-19T05:23:34.059Z,94546.50
2022-10-19T05:26:11.303Z,94555.19
2022-10-19T05:28:37.914Z,94553.34
2022-10-19T05:31:15.418Z,94558.72
2022-10-19T05:33:42.670Z,94566.19
2022-10-19T05:36:15.290Z,94562.03
2022-10-19T05:38:43.242Z,94571.13
2022-10-19T05:41:10.091Z,94565.47
2022-10-19T05:43:36.768Z,94567.03
2022-10-19T05:46:08.459Z,94572.63
2022-10-19T05:48:35.687Z,94577.66
2022-10-19T05:51:05.379Z,94580.63
2022-10-19T05:53:33.864Z,94574.56
2022-10-19T05:56:00.479Z,94571.69
2022-10-19T05:58:33.712Z,94572.06
2022-10-19T06:01:02.266Z,94574.06
2022-10-19T06:03:29.297Z,94563.41
2022-10-19T06:05:56.081Z,94569.19
2022-10-19T06:08:23.898Z,94575.03
2022-10-19T06:10:51.326Z,94574.81
2022-10-19T06:13:19.707Z,94585.78
2022-10-19T06:15:50.482Z,94584.50
2022-10-19T06:18:17.084Z,94592.00
2022-10-19T06:20:43.687Z,94590.56
2022-10-19T06:23:10.248Z,94590.38
2022-10-19T06:25:37.005Z,94592.25
2022-10-19T06:28:03.973Z,94598.69
2022-10-19T06:30:30.756Z,94592.59
2022-10-19T06:32:59.439Z,94586.47
2022-10-19T06:35:26.120Z,94595.59
2022-10-19T06:37:52.874Z,94590.59
2022-10-19T06:40:19.617Z,94597.50
2022-10-19T06:42:46.192Z,94598.28
2022-10-19T06:45:12.806Z,94590.94
2022-10-19T06:47:39.497Z,94590.91
2022-10-19T06:50:07.525Z,94583.56
2022-10-19T06:52:35.822Z,94583.34
2022-10-19T06:55:03.489Z,94574.38
2022-10-19T06:57:30.330Z,94573.91
2022-10-19T06:59:56.921Z,94565.53
2022-10-19T07:02:23.517Z,94562.25
2022-10-19T07:04:50.241Z,94564.84
2022-10-19T07:07:16.890Z,94563.69
2022-10-19T07:09:43.723Z,94565.16
2022-10-19T07:12:10.955Z,94562.75
2022-10-19T07:14:39.709Z,94557.72
2022-10-19T07:17:07.691Z,94561.84
2022-10-19T07:19:34.939Z,94557.53
2022-10-19T07:22:01.957Z,94561.19
2022-10-19T07:24:28.553Z,94559.47
2022-10-19T07:26:55.546Z,94554.69
2022-10-19T07:29:22.283Z,94556.44
2022-10-19T07:31:48.948Z,94557.47
2022-10-19T07:34:16.244Z,94558.00
2022-10-19T07:36:47.970Z,94547.88
2022-10-19T07:39:17.190Z,94550.97
2022-10-19T07:41:44.382Z,94544.16
2022-10-19T07:44:15.594Z,94537.16
2022-10-19T07:46:43.061Z,94540.19
2022-10-19T07:49:20.358Z,94532.31
2022-10-19T07:51:47.134Z,94529.91
2022-10-19T07:54:13.980Z,94513.84
2022-10-19T07:56:40.996Z,94519.66
2022-10-19T07:59:07.789Z,94516.38
2022-10-19T08:01:38.404Z,94507.38
2022-10-19T08:06:54.566Z,94517.97
2022-10-19T08:09:50.987Z,94508.22
2022-10-19T08:12:12.356Z,94513.94
2022-10-19T08:14:41.464Z,94510.44
2022-10-19T08:17:11.782Z,94517.16
2022-10-19T08:19:43.444Z,94509.25
2022-10-19T08:22:11.219Z,94510.16
2022-10-19T08:24:38.087Z,94512.13
2022-10-19T08:27:05.169Z,94512.47
2022-10-19T08:29:32.136Z,94502.75
2022-10-19T08:31:59.410Z,94505.34
2022-10-19T08:34:26.316Z,94500.41
2022-10-19T08:36:52.921Z,94490.19
2022-10-19T08:39:19.587Z,94492.78
2022-10-19T08:42:13.174Z,94495.31
2022-10-19T08:44:39.863Z,94487.72
2022-10-19T08:47:17.455Z,94485.56
2022-10-19T08:49:46.430Z,94483.41
2022-10-19T08:52:20.251Z,94480.47
2022-10-19T08:57:24.363Z,94474.34
2022-10-19T09:00:12.919Z,94478.56
2022-10-19T09:02:39.437Z,94487.47
2022-10-19T09:05:23.989Z,94481.94
2022-10-19T09:07:54.194Z,94479.63
2022-10-19T09:10:26.745Z,94470.00
2022-10-19T09:12:59.805Z,94473.31
2022-10-19T09:15:36.774Z,94469.50
2022-10-19T09:18:03.422Z,94481.38
2022-10-19T09:20:39.406Z,94484.66
2022-10-19T09:23:34.865Z,94480.56
2022-10-19T09:26:01.597Z,94482.66
2022-10-19T09:28:45.468Z,94474.09
2022-10-19T09:31:29.131Z,94477.66
2022-10-19T09:34:02.513Z,94481.34
2022-10-19T09:36:55.825Z,94485.88
2022-10-19T09:39:25.699Z,94482.47
2022-10-19T09:41:58.025Z,94487.56
2022-10-19T09:44:25.877Z,94483.94
2022-10-19T09:47:10.215Z,94482.50
2022-10-19T09:49:45.697Z,94474.50
2022-10-19T09:52:37.258Z,94476.53
2022-10-19T09:55:13.424Z,94472.41
2022-10-19T09:57:48.908Z,94473.28
2022-10-19T10:00:19.616Z,94476.00
2022-10-19T10:02:54.727Z,94461.00
2022-10-19T10:05:40.011Z,94462.44
2022-10-19T10:08:19.964Z,94459.50
2022-10-19T10:10:53.743Z,94453.03
2022-10-19T10:13:24.080Z,94457.88
2022-10-19T10:15:56.870Z,94451.06
2022-10-19T10:18:25.312Z,94447.13
2022-10-19T10:21:14.720Z,94439.94
2022-10-19T10:23:41.503Z,94433.81
2022-10-19T10:26:18.492Z,94427.53
2022-10-19T10:28:50.591Z,94424.81
2022-10-19T10:31:25.051Z,94427.31
2022-10-19T10:34:10.984Z,94419.75
2022-10-19T10:36:51.701Z,94419.47
2022-10-19T10:39:18.385Z,94411.75
2022-10-19T10:41:48.112Z,94406.97
2022-10-19T10:44:45.321Z,94405.41
2022-10-19T10:47:16.795Z,94400.78
2022-10-19T10:49:44.594Z,94393.41
2022-10-19T10:52:14.395Z,94394.41
2022-10-19T10:54:56.945Z,94385.75
2022-10-19T10:57:27.267Z,94380.00
2022-10-19T11:00:16.781Z,94376.50
2022-10-19T11:02:56.342Z,94384.63
2022-10-19T11:05:29.294Z,94373.41
2022-10-19T11:08:03.476Z,94377.28
2022-10-19T11:10:48.833Z,94381.13
2022-10-19T11:13:34.059Z,94368.78
2022-10-19T11:16:14.954Z,94365.69
2022-10-19T11:18:45.066Z,94354.91
2022-10-19T11:21:31.539Z,94361.84
2022-10-19T11:24:11.779Z,94354.47
2022-10-19T11:26:46.244Z,94362.59
2022-10-19T11:29:12.786Z,94345.97
2022-10-19T11:31:47.206Z,94356.41
2022-10-19T11:34:26.119Z,94347.13
2022-10-19T11:37:04.825Z,94351.00
2022-10-19T11:39:51.612Z,94341.72
2022-10-19T11:42:38.890Z,94337.47
2022-10-19T11:45:30.106Z,94339.03
2022-10-19T11:48:23.737Z,94342.50
2022-10-19T11:51:20.554Z,94332.06
2022-10-19T11:53:58.069Z,94332.44
2022-10-19T11:57:05.535Z,94318.16
2022-10-19T11:59:49.988Z,94308.78
2022-10-19T12:02:37.838Z,94303.63
2022-10-19T12:05:32.258Z,94303.94
2022-10-19T12:08:30.065Z,94295.16
2022-10-19T12:10:59.343Z,94305.91
2022-10-19T12:13:34.333Z,94297.03
2022-10-19T12:16:01.954Z,94296.19
2022-10-19T12:18:48.850Z,94301.22
2022-10-19T12:21:27.353Z,94301.41
2022-10-19T12:23:57.041Z,94299.91
2022-10-19T12:26:24.886Z,94304.16
2022-10-19T12:28:58.603Z,94306.44
2022-10-19T12:31:27.685Z,94302.56
2022-10-19T12:34:00.226Z,94299.53
2022-10-19T12:36:26.819Z,94300.69
2022-10-19T12:39:12.375Z,94300.91
2022-10-19T12:41:52.478Z,94291.25
2022-10-19T12:47:07.175Z,94289.59
2022-10-19T12:49:33.824Z,94287.31
2022-10-19T12:52:01.703Z,94291.16
2022-10-19T12:54:33.674Z,94290.16
2022-10-19T12:57:02.894Z,94289.09
2022-10-19T12:59:36.411Z,94291.59
2022-10-19T13:02:06.743Z,94285.94
2022-10-19T13:04:35.898Z,94283.13
2022-10-19T13:07:11.049Z,94291.00
2022-10-19T13:09:43.203Z,94285.53
2022-10-19T13:12:19.573Z,94289.97
2022-10-19T13:14:56.445Z,94268.75
2022-10-19T13:17:38.122Z,94285.03
2022-10-19T13:20:14.238Z,94277.91
2022-10-19T13:22:59.507Z,94267.72
2022-10-19T13:25:27.773Z,94271.75
2022-10-19T13:28:09.284Z,94276.91
2022-10-19T13:30:36.201Z,94274.72
2022-10-19T13:33:27.644Z,94269.94
2022-10-19T13:36:00.029Z,94270.53
2022-10-19T13:38:30.167Z,94266.88
2022-10-19T13:41:03.196Z,94265.75
2022-10-19T13:43:41.955Z,94266.44
2022-10-19T13:46:30.574Z,94262.00
2022-10-19T13:49:15.349Z,94251.97
2022-10-19T13:51:54.177Z,94262.25
2022-10-19T13:54:32.702Z,94254.06
2022-10-19T13:57:25.239Z,94250.13
2022-10-19T14:00:20.034Z,94245.09
2022-10-19T14:02:56.018Z,94244.75
2022-10-19T14:05:50.242Z,94242.03
2022-10-19T14:08:43.305Z,94237.34
2022-10-19T14:11:20.190Z,94234.13
2022-10-19T14:14:09.075Z,94239.31
2022-10-19T14:16:45.815Z,94243.94
2022-10-19T14:19:27.597Z,94247.22
2022-10-19T14:21:56.214Z,94249.47
2022-10-19T14:24:40.683Z,94248.50
2022-10-19T14:27:08.082Z,94249.91
2022-10-19T14:29:46.110Z,94242.97
2022-10-19T14:32:13.510Z,94249.47
2022-10-19T14:34:45.488Z,94249.97
2022-10-19T14:37:21.795Z,94258.59
2022-10-19T14:39:58.813Z,94255.41
2022-10-19T14:42:42.731Z,94261.84
2022-10-19T14:45:23.962Z,94262.31
2022-10-19T14:47:55.203Z,94264.03
2022-10-19T14:50:26.972Z,94265.03
2022-10-19T14:53:01.019Z,94272.13
2022-10-19T14:55:35.783Z,94269.47
2022-10-19T14:58:09.173Z,94272.09
2022-10-19T15:00:36.009Z,94274.31
2022-10-19T15:03:10.901Z,94282.88
2022-10-19T15:05:48.481Z,94276.44
2022-10-19T15:08:48.588Z,94276.03
2022-10-19T15:11:39.953Z,94287.63
2022-10-19T15:14:14.239Z,94287.59
2022-10-19T15:16:46.560Z,94288.41
2022-10-19T15:19:19.663Z,94289.56
2022-10-19T15:22:18.414Z,94296.13
2022-10-19T15:25:06.992Z,94310.84
2022-10-19T15:27:41.949Z,94298.06
2022-10-19T15:30:17.299Z,94309.69
2022-10-19T15:32:51.761Z,94310.06
2022-10-19T15:35:39.897Z,94303.09
2022-10-19T15:38:14.583Z,94319.34
2022-10-19T15:40:43.696Z,94316.63
2022-10-19T15:43:33.061Z,94319.34
2022-10-19T15:46:00.378Z,94325.88
2022-10-19T15:48:34.987Z,94321.63
2022-10-19T15:51:01.635Z,94339.03
2022-10-19T15:53:28.705Z,94331.69
2022-10-19T15:55:55.427Z,94338.25
2022-10-19T15:58:22.090Z,94340.97
2022-10-19T16:00:49.035Z,94346.34
2022-10-19T16:03:16.466Z,94352.13
2022-10-19T16:05:43.156Z,94357.50
2022-10-19T16:08:12.455Z,94357.50
2022-10-19T16:10:39.270Z,94359.38
2022-10-19T16:13:06.036Z,94363.28
2022-10-19T16:15:33.480Z,94359.78
2022-10-19T16:18:00.534Z,94364.81
2022-10-19T16:20:29.858Z,94365.19
2022-10-19T16:22:57.203Z,94374.88
2022-10-19T16:25:24.026Z,94372.88
2022-10-19T16:27:50.757Z,94374.06
2022-10-19T16:30:17.636Z,94387.03
2022-10-19T16:32:44.199Z,94390.53
2022-10-19T16:35:11.811Z,94378.84
2022-10-19T16:37:38.445Z,94393.69
2022-10-19T16:40:05.681Z,94395.22
2022-10-19T16:42:33.053Z,94405.59
2022-10-19T16:45:00.044Z,94401.66
2022-10-19T16:47:26.810Z,94407.56
2022-10-19T16:49:59.021Z,94407.00
2022-10-19T16:52:26.949Z,94400.06
2022-10-19T16:54:53.865Z,94406.63
2022-10-19T16:57:20.753Z,94411.75
2022-10-19T16:59:50.375Z,94409.81
2022-10-19T17:02:17.440Z,94420.22
2022-10-19T17:04:44.425Z,94415.97
2022-10-19T17:07:12.245Z,94427.06
2022-10-19T17:09:42.262Z,94427.53
2022-10-19T17:12:10.231Z,94428.34
2022-10-19T17:14:41.217Z,94425.47
2022-10-19T17:17:08.553Z,94431.31
2022-10-19T17:19:36.470Z,94427.41
2022-10-19T17:22:03.610Z,94427.03
2022-10-19T17:24:31.768Z,94427.69
2022-10-19T17:27:01.248Z,94431.53
2022-10-19T17:29:27.809Z,94425.81
2022-10-19T17:31:54.501Z,94432.41
2022-10-19T17:34:21.277Z,94439.22
2022-10-19T17:36:48.556Z,94433.84
2022-10-19T17:39:19.061Z,94436.59
2022-10-19T17:41:47.131Z,94440.03
2022-10-19T17:44:14.368Z,94439.25
2022-10-19T17:46:41.184Z,94436.66
2022-10-19T17:49:08.050Z,94441.03
2022-10-19T17:51:38.002Z,94435.28
2022-10-19T17:54:12.833Z,94440.03
2022-10-19T17:56:43.572Z,94441.84
2022-10-19T17:59:10.272Z,94433.72
2022-10-19T18:01:37.430Z,94440.72
2022-10-19T18:04:05.005Z,94440.44
2022-10-19T18:06:35.354Z,94441.91
2022-10-19T18:09:04.214Z,94439.38
2022-10-19T18:11:37.397Z,94439.63
2022-10-19T18:14:04.764Z,94438.53
2022-10-19T18:16:39.823Z,94440.16
2022-10-19T18:19:07.640Z,94438.84
2022-10-19T18:21:38.704Z,94433.09
2022-10-19T18:24:08.190Z,94436.00
2022-10-19T18:26:36.844Z,94442.38
2022-10-19T18:29:17.143Z,94441.59
2022-10-19T18:31:44.034Z,94436.78
2022-10-19T18:34:15.335Z,94449.19
2022-10-19T18:36:42.329Z,94443.28
2022-10-19T18:39:11.025Z,94440.53
2022-10-19T18:41:38.607Z,94448.25
2022-10-19T18:44:06.936Z,94448.94
2022-10-19T18:46:36.889Z,94450.59
2022-10-19T18:49:06.841Z,94451.69
2022-10-19T18:51:33.541Z,94448.81
2022-10-19T18:54:00.176Z,94457.38
2022-10-19T18:56:29.622Z,94466.28
2022-10-19T18:58:57.145Z,94465.00
2022-10-19T19:01:26.901Z,94468.94
2022-10-19T19:03:57.010Z,94461.25
2022-10-19T19:06:26.560Z,94464.66
2022-10-19T19:08:57.874Z,94480.34
2022-10-19T19:11:27.674Z,94475.09
2022-10-19T19:14:02.100Z,94479.56
2022-10-19T19:16:32.124Z,94479.75
2022-10-19T19:18:58.943Z,94483.03
2022-10-19T19:21:27.545Z,94488.09
2022-10-19T19:23:56.122Z,94492.84
2022-10-19T19:26:24.951Z,94493.13
2022-10-19T19:28:51.891Z,94489.88
2022-10-19T19:31:18.927Z,94489.00
2022-10-19T19:33:47.335Z,94501.38
2022-10-19T19:36:16.096Z,94507.44
2022-10-19T19:38:43.354Z,94506.50
2022-10-19T19:41:13.227Z,94507.81
2022-10-19T19:43:40.871Z,94508.38
2022-10-19T19:46:12.531Z,94514.78
2022-10-19T19:48:40.767Z,94517.44
2022-10-19T19:51:28.634Z,94524.78
2022-10-19T19:53:55.259Z,94521.97
2022-10-19T19:56:21.982Z,94527.78
2022-10-19T19:58:48.602Z,94526.19
2022-10-19T20:01:20.560Z,94531.72
2022-10-19T20:03:48.177Z,94522.56
2022-10-19T20:06:20.732Z,94523.97
2022-10-19T20:08:50.283Z,94529.59
2022-10-19T20:11:17.638Z,94525.59
2022-10-19T20:13:45.774Z,94533.41
2022-10-19T20:16:15.801Z,94526.16
2022-10-19T20:18:45.433Z,94528.69
2022-10-19T20:21:12.914Z,94533.44
2022-10-19T20:23:39.719Z,94526.38
2022-10-19T20:26:06.625Z,94536.38
2022-10-19T20:28:33.574Z,94532.19
2022-10-19T20:31:08.286Z,94530.81
2022-10-19T20:33:37.528Z,94531.19
2022-10-19T20:36:09.650Z,94532.91
2022-10-19T20:38:38.643Z,94529.97
2022-10-19T20:41:09.764Z,94540.09
2022-10-19T20:43:38.108Z,94538.69
2022-10-19T20:46:16.585Z,94540.91
2022-10-19T20:48:43.690Z,94536.56
2022-10-19T20:51:20.984Z,94545.47
2022-10-19T20:53:50.366Z,94548.78
2022-10-19T20:56:23.103Z,94546.31
2022-10-19T20:58:57.772Z,94535.13
2022-10-19T21:01:25.236Z,94537.16
2022-10-19T21:03:54.731Z,94542.09
2022-10-19T21:06:23.268Z,94549.75
2022-10-19T21:08:50.113Z,94537.66
2022-10-19T21:11:22.811Z,94546.38
2022-10-19T21:13:53.563Z,94536.59
2022-10-19T21:16:22.247Z,94544.25
2022-10-19T21:18:50.196Z,94539.41
2022-10-19T21:21:21.254Z,94549.28
2022-10-19T21:23:53.650Z,94551.41
2022-10-19T21:26:20.899Z,94558.16
2022-10-19T21:28:49.537Z,94556.63
2022-10-19T21:31:17.363Z,94555.31
2022-10-19T21:33:44.582Z,94552.19
2022-10-19T21:36:12.182Z,94554.28
2022-10-19T21:38:38.965Z,94559.13
2022-10-19T21:41:08.570Z,94559.41
2022-10-19T21:43:35.385Z,94558.63
2022-10-19T21:46:07.059Z,94555.53
2022-10-19T21:48:34.363Z,94563.63
2022-10-19T21:51:12.924Z,94562.09
2022-10-19T21:53:39.563Z,94561.69
2022-10-19T21:56:06.434Z,94563.50
2022-10-19T21:58:33.006Z,94559.47
2022-10-19T22:01:06.792Z,94552.56
2022-10-19T22:03:33.776Z,94563.34
2022-10-19T22:06:00.591Z,94564.88
2022-10-19T22:08:27.588Z,94562.72
2022-10-19T22:10:54.314Z,94562.19
2022-10-19T22:13:21.051Z,94559.06
2022-10-19T22:15:47.718Z,94563.25
2022-10-19T22:18:14.375Z,94564.16
2022-10-19T22:20:41.218Z,94562.44
2022-10-19T22:23:08.226Z,94561.31
2022-10-19T22:25:35.831Z,94560.25
2022-10-19T22:28:02.671Z,94563.91
2022-10-19T22:30:29.406Z,94559.50
2022-10-19T22:32:56.037Z,94564.03
2022-10-19T22:35:22.679Z,94569.91
2022-10-19T22:37:49.285Z,94565.22
2022-10-19T22:40:15.902Z,94575.75
2022-10-19T22:43:38.725Z,94569.63
2022-10-19T22:47:01.711Z,94568.31
2022-10-19T22:50:24.235Z,94571.13
2022-10-19T22:52:59.878Z,94568.53
2022-10-19T22:55:26.440Z,94564.41
2022-10-19T22:57:53.059Z,94570.44
2022-10-19T23:00:20.138Z,94575.59
2022-10-19T23:02:46.678Z,94571.34
2022-10-19T23:05:13.325Z,94574.25
2022-10-19T23:07:39.893Z,94570.16
2022-10-19T23:10:06.969Z,94567.56
2022-10-19T23:12:33.534Z,94571.13
2022-10-19T23:15:00.185Z,94561.75
2022-10-19T23:17:26.793Z,94568.09
2022-10-19T23:19:53.373Z,94573.34
2022-10-19T23:22:19.927Z,94572.72
2022-10-19T23:24:46.486Z,94591.84
2022-10-19T23:27:13.572Z,94585.91
2022-10-19T23:29:40.282Z,94585.31
2022-10-19T23:32:06.940Z,94590.72
2022-10-19T23:37:05.009Z,94594.75
2022-10-19T23:39:31.622Z,94591.44
2022-10-19T23:41:58.217Z,94593.38
2022-10-19T23:44:24.793Z,94583.31
2022-10-19T23:46:51.413Z,94588.63
2022-10-19T23:49:18.001Z,94597.78
2022-10-19T23:51:44.595Z,94594.06
2022-10-19T23:54:11.155Z,94601.31
2022-10-19T23:56:37.726Z,94604.09
2022-10-19T23:59:07.369Z,94604.78
